Terminal Aerodrome Forecast
Issued by NWS

Home | Current Version | Previous Version | Text Only | Print | Product List | Glossary On
Versions: 1 2 3 4 5 6 7 8 9 10 11 12 13 14 15 16 17 18 19 20
374
FTUS43 KLSX 242339
TAFUIN
TAF
KUIN 242339Z 2500/2524 22005KT P6SM SCT045
     FM250500 19005KT 6SM -RA OVC090
      TEMPO 2506/2510 4SM TSRA OVC040CB
     FM251000 27004KT 6SM BR BKN020
     FM251400 32006KT P6SM BKN035=

USA.gov is the U.S. government's official web portal to all federal, state and local government web resources and services.